Time;durP1;ratioP1;P1;durP2;ratioP2;P2;SDS_P1;SDS_P2;PMS_P1;PMS_P2;Temp;Humidity;BMP_temperature;BMP_pressure;BME280_temperature;BME280_humidity;BME280_pressure;Samples;Min_cycle;Max_cycle;Signal;HPM_P1;HPM_P2
2020/12/08 00:00:07;;;;;;;21.63;17.27;;;2.60;99.90;;;;;;5085722;28;20228;-77
2020/12/08 00:02:34;;;;;;;23.83;17.33;;;2.60;99.90;;;;;;5078624;28;20198;-76
2020/12/08 00:05:00;;;;;;;21.53;16.73;;;2.70;99.90;;;;;;5087527;28;20580;-76
2020/12/08 00:07:27;;;;;;;22.47;17.10;;;2.70;99.90;;;;;;5075959;28;20207;-76
2020/12/08 00:09:53;;;;;;;21.97;15.73;;;2.70;99.90;;;;;;5082730;28;20195;-75
2020/12/08 00:12:23;;;;;;;21.23;15.80;;;2.80;99.90;;;;;;5082585;28;20578;-76
2020/12/08 00:14:50;;;;;;;22.70;16.43;;;2.80;99.90;;;;;;5075704;28;20396;-76
2020/12/08 00:17:17;;;;;;;21.93;17.00;;;2.80;99.90;;;;;;5087960;28;20676;-76
2020/12/08 00:19:43;;;;;;;21.57;15.67;;;2.80;99.90;;;;;;5081789;28;20221;-81
2020/12/08 00:22:10;;;;;;;20.30;15.37;;;2.90;99.90;;;;;;5089786;28;20210;-78
2020/12/08 00:24:36;;;;;;;22.03;15.73;;;2.90;99.90;;;;;;5086895;28;20569;-76
2020/12/08 00:27:02;;;;;;;20.70;15.50;;;2.90;99.90;;;;;;5095120;28;20198;-76
2020/12/08 00:29:29;;;;;;;21.33;15.37;;;2.80;99.90;;;;;;5095799;28;20198;-76
2020/12/08 00:31:56;;;;;;;19.67;14.10;;;2.90;99.90;;;;;;5095118;28;20198;-76
2020/12/08 00:34:22;;;;;;;20.43;15.70;;;2.90;99.90;;;;;;5095226;28;20289;-77
2020/12/08 00:36:49;;;;;;;19.67;15.23;;;2.90;99.90;;;;;;5095956;28;20236;-76
2020/12/08 00:39:15;;;;;;;20.13;15.33;;;2.80;99.90;;;;;;5108763;28;20202;-76
2020/12/08 00:41:42;;;;;;;17.93;14.70;;;2.80;99.90;;;;;;5095094;28;20198;-76
2020/12/08 00:44:08;;;;;;;20.83;15.47;;;2.90;99.90;;;;;;5094915;28;20328;-76
2020/12/08 00:46:34;;;;;;;19.80;15.40;;;2.90;99.90;;;;;;5095169;28;20210;-76
2020/12/08 00:49:02;;;;;;;21.03;15.63;;;2.60;99.90;;;;;;5094642;28;20205;-76
2020/12/08 00:51:28;;;;;;;20.37;15.40;;;2.60;99.90;;;;;;5094880;28;20241;-73
2020/12/08 00:53:54;;;;;;;22.47;16.57;;;2.60;99.90;;;;;;5094527;28;20737;-77
2020/12/08 00:56:21;;;;;;;23.90;16.73;;;2.50;99.90;;;;;;5094752;28;20212;-75
2020/12/08 00:58:47;;;;;;;21.73;15.70;;;2.50;99.90;;;;;;5094843;28;20202;-75
2020/12/08 01:01:13;;;;;;;23.43;16.93;;;2.30;99.90;;;;;;5094547;28;20198;-75
2020/12/08 01:03:40;;;;;;;24.63;16.53;;;2.30;99.90;;;;;;5094661;28;20292;-76
2020/12/08 01:06:12;;;;;;;20.87;16.23;;;2.30;99.90;;;;;;5094499;28;20201;-76
2020/12/08 01:08:38;;;;;;;25.60;18.53;;;2.20;99.90;;;;;;5094772;28;20232;-76
2020/12/08 01:11:04;;;;;;;24.47;17.03;;;2.10;99.90;;;;;;5094185;28;20216;-76
2020/12/08 01:13:34;;;;;;;24.00;16.73;;;2.10;99.90;;;;;;5094598;28;20212;-76
2020/12/08 01:16:01;;;;;;;23.20;17.37;;;2.00;99.90;;;;;;5094063;28;20221;-76
2020/12/08 01:18:28;;;;;;;23.47;17.00;;;1.90;99.90;;;;;;5094486;28;20245;-76
2020/12/08 01:20:55;;;;;;;23.80;17.20;;;2.00;99.90;;;;;;5094289;28;20202;-75
2020/12/08 01:23:23;;;;;;;24.37;17.83;;;1.90;99.90;;;;;;5094355;28;20282;-75
2020/12/08 01:25:49;;;;;;;25.40;18.50;;;1.90;99.90;;;;;;5094325;28;20202;-75
2020/12/08 01:28:17;;;;;;;30.23;18.83;;;1.90;99.90;;;;;;5094059;28;20232;-76
2020/12/08 01:30:44;;;;;;;25.23;18.43;;;1.90;99.90;;;;;;5094209;28;20194;-75
2020/12/08 01:33:10;;;;;;;26.00;18.37;;;1.90;99.90;;;;;;5094372;28;20265;-75
2020/12/08 01:35:37;;;;;;;27.33;19.07;;;2.00;99.90;;;;;;5093627;28;20230;-75
2020/12/08 01:38:03;;;;;;;24.03;17.70;;;2.10;99.90;;;;;;5093504;28;20222;-75
2020/12/08 01:40:31;;;;;;;24.53;18.43;;;2.10;99.90;;;;;;5090802;28;20199;-76
2020/12/08 01:42:58;;;;;;;25.93;19.13;;;2.00;99.90;;;;;;5083247;28;20214;-75
2020/12/08 01:45:25;;;;;;;26.43;18.80;;;2.10;99.90;;;;;;5093453;28;20285;-76
2020/12/08 01:47:52;;;;;;;27.63;19.33;;;2.10;99.90;;;;;;5093782;28;20679;-75
2020/12/08 01:50:19;;;;;;;27.27;18.77;;;2.10;99.90;;;;;;5093746;28;20198;-76
2020/12/08 01:52:47;;;;;;;27.13;20.07;;;2.20;99.90;;;;;;5079461;28;20217;-76
2020/12/08 01:55:14;;;;;;;24.60;18.57;;;2.20;99.90;;;;;;5093708;28;20214;-75
2020/12/08 01:57:42;;;;;;;24.23;18.23;;;2.20;99.90;;;;;;5093263;28;20222;-75
2020/12/08 02:00:08;;;;;;;26.27;18.87;;;2.20;99.90;;;;;;5093502;28;20692;-76
2020/12/08 02:02:35;;;;;;;24.67;18.37;;;2.20;99.90;;;;;;5093342;28;20248;-75
2020/12/08 02:05:02;;;;;;;24.80;18.20;;;2.20;99.90;;;;;;5093421;28;20200;-76
2020/12/08 02:07:28;;;;;;;24.93;17.47;;;2.40;99.90;;;;;;5093126;28;20198;-76
2020/12/08 02:09:55;;;;;;;27.23;19.07;;;2.20;99.90;;;;;;5093601;28;20209;-75
2020/12/08 02:12:21;;;;;;;25.67;18.03;;;2.30;99.90;;;;;;5086357;28;20229;-76
2020/12/08 02:14:48;;;;;;;26.33;17.20;;;2.30;99.90;;;;;;5084669;28;20648;-76
2020/12/08 02:17:15;;;;;;;23.63;18.13;;;2.40;99.90;;;;;;5093318;28;20228;-76
2020/12/08 02:19:44;;;;;;;23.83;17.77;;;2.30;99.90;;;;;;5093326;28;20200;-76
2020/12/08 02:22:12;;;;;;;24.83;18.07;;;2.30;99.90;;;;;;5093757;28;20660;-76
2020/12/08 02:24:41;;;;;;;24.40;18.40;;;2.30;99.90;;;;;;5093248;28;20714;-77
2020/12/08 02:27:07;;;;;;;26.17;19.33;;;2.40;99.90;;;;;;5093214;28;20224;-77
2020/12/08 02:29:33;;;;;;;27.23;19.50;;;2.30;99.90;;;;;;5085268;28;20205;-76
2020/12/08 02:32:00;;;;;;;26.10;18.67;;;2.40;99.90;;;;;;5087414;28;20289;-77
2020/12/08 02:34:29;;;;;;;21.60;16.40;;;2.40;99.90;;;;;;5092990;28;20255;-76
2020/12/08 02:36:58;;;;;;;25.23;18.07;;;2.40;99.90;;;;;;5093062;28;20259;-76
2020/12/08 02:39:26;;;;;;;25.93;18.93;;;2.40;99.90;;;;;;5092990;28;20278;-76
2020/12/08 02:41:53;;;;;;;25.70;18.27;;;2.40;99.90;;;;;;5093284;28;20231;-76
2020/12/08 02:44:20;;;;;;;27.63;19.73;;;2.40;99.90;;;;;;5096261;28;20194;-76
2020/12/08 02:46:49;;;;;;;24.70;18.17;;;2.30;99.90;;;;;;5103687;28;20204;-76
2020/12/08 02:49:17;;;;;;;30.30;18.90;;;2.30;99.90;;;;;;5091924;28;20554;-76
2020/12/08 02:51:44;;;;;;;28.27;20.13;;;2.30;99.90;;;;;;5093001;28;20194;-76
2020/12/08 02:54:10;;;;;;;26.60;19.70;;;2.30;99.90;;;;;;5092989;28;20202;-76
2020/12/08 02:56:37;;;;;;;26.13;18.87;;;2.30;99.90;;;;;;5092905;28;20198;-74
2020/12/08 02:59:04;;;;;;;24.43;18.33;;;2.30;99.90;;;;;;5092858;28;20284;-76
2020/12/08 03:01:30;;;;;;;26.40;19.87;;;2.30;99.90;;;;;;5078879;28;20457;-74
2020/12/08 03:03:57;;;;;;;28.00;20.73;;;2.30;99.90;;;;;;5092967;28;20202;-76
2020/12/08 03:06:23;;;;;;;28.07;19.57;;;2.30;99.90;;;;;;5092682;28;20292;-77
2020/12/08 03:08:50;;;;;;;26.67;18.90;;;2.30;99.90;;;;;;5092794;28;20649;-77
2020/12/08 03:11:16;;;;;;;27.67;19.37;;;2.40;99.90;;;;;;5092570;28;20620;-77
2020/12/08 03:13:43;;;;;;;23.57;18.47;;;2.30;99.90;;;;;;5093010;28;20208;-74
2020/12/08 03:16:10;;;;;;;26.67;19.40;;;2.40;99.90;;;;;;5092668;28;20308;-74
2020/12/08 03:18:40;;;;;;;27.20;19.23;;;2.40;99.90;;;;;;5092559;28;20217;-76
2020/12/08 03:21:07;;;;;;;23.63;19.00;;;2.40;99.90;;;;;;5081694;28;20546;-76
2020/12/08 03:23:33;;;;;;;26.80;19.40;;;2.40;99.90;;;;;;5089093;28;20210;-76
2020/12/08 03:26:00;;;;;;;25.90;18.83;;;2.50;99.90;;;;;;5092620;28;20194;-76
2020/12/08 03:28:26;;;;;;;26.07;18.27;;;2.90;99.90;;;;;;5092561;28;20213;-76
2020/12/08 03:30:53;;;;;;;23.90;17.97;;;2.50;99.90;;;;;;5092335;28;20542;-75
2020/12/08 03:33:19;;;;;;;25.80;18.93;;;2.60;99.90;;;;;;5092221;28;20224;-78
2020/12/08 03:35:46;;;;;;;26.63;19.57;;;2.60;99.90;;;;;;5092254;28;20289;-74
2020/12/08 03:38:12;;;;;;;24.73;18.33;;;2.50;99.90;;;;;;5092349;28;20222;-74
2020/12/08 03:40:39;;;;;;;26.07;19.17;;;2.50;99.90;;;;;;5092177;28;20646;-77
2020/12/08 03:43:05;;;;;;;25.73;19.13;;;2.50;99.90;;;;;;5092422;28;20683;-73
2020/12/08 03:45:32;;;;;;;29.87;19.20;;;2.60;99.90;;;;;;5092201;28;20199;-74
2020/12/08 03:47:59;;;;;;;25.83;19.43;;;2.50;99.90;;;;;;5092179;28;20205;-74
2020/12/08 03:50:25;;;;;;;26.03;19.03;;;2.50;99.90;;;;;;5092663;28;20289;-75
2020/12/08 03:52:52;;;;;;;28.17;19.27;;;2.50;99.90;;;;;;5078133;28;20285;-73
2020/12/08 03:55:18;;;;;;;28.50;19.73;;;2.50;99.90;;;;;;5092273;28;20208;-75
2020/12/08 03:57:45;;;;;;;24.20;17.87;;;2.50;99.90;;;;;;5091911;28;20214;-75
2020/12/08 04:00:11;;;;;;;25.97;18.70;;;2.50;99.90;;;;;;5094552;28;20285;-75
2020/12/08 04:02:38;;;;;;;28.97;18.77;;;2.60;99.90;;;;;;5095601;28;20199;-75
2020/12/08 04:05:05;;;;;;;25.27;18.50;;;2.60;99.90;;;;;;5096217;28;20301;-74
2020/12/08 04:07:31;;;;;;;25.73;19.90;;;2.60;99.90;;;;;;5095949;28;20224;-74
2020/12/08 04:09:58;;;;;;;28.10;19.43;;;2.60;99.90;;;;;;5095906;28;20657;-75
2020/12/08 04:12:24;;;;;;;29.27;18.33;;;2.70;99.90;;;;;;5095948;28;20221;-75
2020/12/08 04:14:50;;;;;;;25.37;18.50;;;2.70;99.90;;;;;;5077075;28;20294;-75
2020/12/08 04:17:18;;;;;;;28.60;18.90;;;2.70;99.90;;;;;;5086710;28;20217;-75
2020/12/08 04:19:45;;;;;;;28.90;19.00;;;2.70;99.90;;;;;;5095705;28;20194;-75
2020/12/08 04:22:12;;;;;;;25.57;18.30;;;2.80;99.90;;;;;;5095579;28;20580;-75
2020/12/08 04:24:38;;;;;;;25.33;18.27;;;2.70;99.90;;;;;;5095772;28;20202;-75
2020/12/08 04:27:05;;;;;;;25.00;18.50;;;2.70;99.90;;;;;;5077734;28;20213;-75
2020/12/08 04:29:31;;;;;;;25.57;18.40;;;2.70;99.90;;;;;;5085403;28;20288;-75
2020/12/08 04:31:58;;;;;;;31.07;19.57;;;2.80;99.90;;;;;;5079606;28;20729;-75
2020/12/08 04:34:27;;;;;;;27.43;18.83;;;2.80;99.90;;;;;;5091824;28;20587;-75
2020/12/08 04:36:53;;;;;;;27.90;19.20;;;2.70;99.90;;;;;;5086516;28;20242;-75
2020/12/08 04:39:21;;;;;;;25.80;18.07;;;2.70;99.90;;;;;;5096026;28;20720;-75
2020/12/08 04:41:47;;;;;;;31.20;19.60;;;2.80;99.90;;;;;;5095436;28;20206;-75
2020/12/08 04:44:14;;;;;;;22.93;17.70;;;2.80;99.90;;;;;;5095554;28;20224;-75
2020/12/08 04:46:40;;;;;;;24.70;18.63;;;2.80;99.90;;;;;;5095299;28;20202;-75
2020/12/08 04:49:07;;;;;;;27.00;19.17;;;2.80;99.90;;;;;;5094993;28;20194;-75
2020/12/08 04:51:39;;;;;;;25.07;18.03;;;2.80;99.90;;;;;;5095262;28;20573;-75
2020/12/08 04:54:06;;;;;;;30.83;19.67;;;2.80;99.90;;;;;;5080950;28;20202;-75
2020/12/08 04:56:35;;;;;;;26.17;17.27;;;2.80;99.90;;;;;;5095329;28;20572;-75
2020/12/08 04:59:01;;;;;;;24.43;17.20;;;2.80;99.90;;;;;;5095148;28;20229;-75
2020/12/08 05:01:28;;;;;;;24.20;18.07;;;2.90;99.90;;;;;;5095456;28;20197;-75
2020/12/08 05:03:59;;;;;;;28.13;17.87;;;2.90;99.90;;;;;;5081966;28;20733;-75
2020/12/08 05:06:26;;;;;;;24.87;16.73;;;2.80;99.90;;;;;;5094933;28;20198;-74
2020/12/08 05:09:04;;;;;;;23.70;16.90;;;2.80;99.90;;;;;;5095630;28;20206;-74
2020/12/08 05:11:31;;;;;;;26.00;17.73;;;2.70;99.90;;;;;;5094357;28;20202;-75
2020/12/08 05:14:03;;;;;;;23.00;16.43;;;2.80;99.90;;;;;;5095185;28;20207;-75
2020/12/08 05:16:30;;;;;;;26.07;17.77;;;2.60;99.90;;;;;;5094914;28;20201;-75
2020/12/08 05:19:09;;;;;;;22.90;17.40;;;2.50;99.90;;;;;;5095002;28;20718;-75
2020/12/08 05:21:47;;;;;;;23.90;16.80;;;2.50;99.90;;;;;;5109370;28;20200;-77
2020/12/08 05:24:22;;;;;;;25.43;16.80;;;2.40;99.90;;;;;;5095987;28;20286;-77
2020/12/08 05:26:54;;;;;;;27.43;18.00;;;2.40;99.90;;;;;;5079476;28;20217;-76
2020/12/08 05:29:22;;;;;;;27.27;18.87;;;2.50;99.90;;;;;;5075000;28;20209;-77
2020/12/08 05:31:50;;;;;;;27.00;17.57;;;2.50;99.90;;;;;;5074525;28;20209;-77
2020/12/08 05:34:18;;;;;;;26.77;18.07;;;2.50;99.90;;;;;;5081482;28;20237;-77
2020/12/08 05:36:48;;;;;;;30.90;18.17;;;2.60;99.90;;;;;;5094608;28;20202;-76
2020/12/08 05:39:17;;;;;;;24.43;17.27;;;2.70;99.90;;;;;;5094581;28;20295;-76
2020/12/08 05:41:45;;;;;;;25.30;17.40;;;2.60;99.90;;;;;;5094822;28;20208;-76
2020/12/08 05:44:16;;;;;;;21.90;16.23;;;2.60;99.90;;;;;;5080529;28;20206;-76
2020/12/08 05:46:44;;;;;;;23.43;17.13;;;2.60;99.90;;;;;;5094672;28;20198;-75
2020/12/08 05:49:13;;;;;;;25.57;18.60;;;2.60;99.90;;;;;;5076107;28;20600;-75
2020/12/08 05:51:43;;;;;;;27.60;18.70;;;2.60;99.90;;;;;;5084140;28;20202;-74
2020/12/08 05:54:15;;;;;;;27.50;18.37;;;2.60;99.90;;;;;;5091156;28;20285;-76
2020/12/08 05:56:42;;;;;;;27.47;18.57;;;2.60;99.90;;;;;;5083403;28;20206;-74
2020/12/08 05:59:08;;;;;;;28.27;19.23;;;2.50;99.90;;;;;;5091930;28;20228;-74
2020/12/08 06:01:34;;;;;;;27.83;18.23;;;2.70;99.90;;;;;;5081656;28;20297;-75
2020/12/08 06:04:02;;;;;;;27.50;20.13;;;2.50;99.90;;;;;;5093701;28;20202;-75
2020/12/08 06:06:28;;;;;;;24.97;18.77;;;2.50;99.90;;;;;;5093717;28;20564;-75
2020/12/08 06:08:55;;;;;;;28.57;19.93;;;2.50;99.90;;;;;;5093878;28;20578;-74
2020/12/08 06:11:30;;;;;;;27.93;18.30;;;2.60;99.90;;;;;;5093455;28;20214;-77
2020/12/08 06:13:56;;;;;;;30.23;20.20;;;2.50;99.90;;;;;;5093646;28;20568;-75
2020/12/08 06:16:24;;;;;;;25.80;18.57;;;2.50;99.90;;;;;;5093812;28;20289;-75
2020/12/08 06:18:51;;;;;;;29.07;18.80;;;2.50;99.90;;;;;;5093361;28;20271;-75
2020/12/08 06:21:21;;;;;;;30.37;18.90;;;2.40;99.90;;;;;;5093279;28;20212;-75
2020/12/08 06:23:48;;;;;;;28.10;19.90;;;2.40;99.90;;;;;;5092315;28;20236;-75
2020/12/08 06:26:21;;;;;;;28.90;19.33;;;2.40;99.90;;;;;;5093044;28;20205;-74
2020/12/08 06:28:48;;;;;;;29.17;19.03;;;2.40;99.90;;;;;;5093409;28;20194;-75
2020/12/08 06:31:14;;;;;;;29.50;21.07;;;2.30;99.90;;;;;;5093210;28;20654;-75
2020/12/08 06:33:49;;;;;;;28.97;19.10;;;2.30;99.90;;;;;;5093088;28;20575;-75
2020/12/08 06:36:16;;;;;;;27.27;18.80;;;2.20;99.90;;;;;;5093349;28;20205;-74
2020/12/08 06:38:43;;;;;;;30.67;20.17;;;2.20;99.90;;;;;;5092704;28;20576;-74
2020/12/08 06:41:10;;;;;;;27.17;18.67;;;2.10;99.90;;;;;;5092910;28;20316;-74
2020/12/08 06:43:42;;;;;;;31.57;19.53;;;2.10;99.90;;;;;;5093142;28;20210;-75
2020/12/08 06:46:11;;;;;;;29.43;19.50;;;2.00;99.90;;;;;;5079641;28;20210;-75
2020/12/08 06:48:39;;;;;;;28.60;19.60;;;2.10;99.90;;;;;;5092800;28;20228;-75
2020/12/08 06:51:16;;;;;;;32.43;19.90;;;1.90;99.90;;;;;;5092678;28;20214;-76
2020/12/08 06:53:43;;;;;;;33.60;19.83;;;1.90;99.90;;;;;;5092929;28;20205;-75
2020/12/08 06:56:10;;;;;;;29.40;20.47;;;1.90;99.90;;;;;;5092792;28;20204;-76
2020/12/08 06:58:46;;;;;;;28.23;19.83;;;2.00;99.90;;;;;;5092853;28;20313;-77
2020/12/08 07:01:12;;;;;;;30.13;19.43;;;1.90;99.90;;;;;;5092666;28;20691;-75
2020/12/08 07:03:39;;;;;;;31.03;19.13;;;1.70;99.90;;;;;;5092568;28;20204;-76
2020/12/08 07:06:05;;;;;;;30.60;19.20;;;1.70;99.90;;;;;;5092666;28;20222;-75
2020/12/08 07:08:32;;;;;;;33.00;22.10;;;1.60;99.90;;;;;;5093112;28;20202;-76
2020/12/08 07:10:59;;;;;;;33.47;23.33;;;1.60;99.90;;;;;;5092616;28;20205;-75
2020/12/08 07:13:26;;;;;;;34.77;21.63;;;1.60;99.90;;;;;;5093182;28;20213;-76
2020/12/08 07:15:52;;;;;;;35.50;23.13;;;1.60;99.90;;;;;;5093190;28;20205;-76
2020/12/08 07:18:19;;;;;;;35.13;23.57;;;1.60;99.90;;;;;;5092780;28;20232;-75
2020/12/08 07:20:46;;;;;;;34.37;23.83;;;1.60;99.90;;;;;;5092675;28;20612;-75
2020/12/08 07:23:13;;;;;;;35.67;23.23;;;1.60;99.90;;;;;;5093024;28;20292;-75
2020/12/08 07:25:40;;;;;;;36.17;23.50;;;1.50;99.90;;;;;;5092638;28;20624;-75
2020/12/08 07:28:07;;;;;;;33.30;23.37;;;1.50;99.90;;;;;;5092751;28;20664;-76
2020/12/08 07:30:33;;;;;;;36.33;23.30;;;1.30;99.90;;;;;;5092697;28;20668;-75
2020/12/08 07:33:09;;;;;;;36.00;22.67;;;1.70;99.90;;;;;;5082597;28;20582;-76
2020/12/08 07:35:36;;;;;;;36.10;23.40;;;1.30;99.90;;;;;;5090006;28;20194;-76
2020/12/08 07:38:03;;;;;;;37.00;25.13;;;1.30;99.90;;;;;;5076394;28;20321;-76
2020/12/08 07:40:32;;;;;;;41.07;27.67;;;1.30;99.90;;;;;;5076545;28;20234;-75
2020/12/08 07:42:58;;;;;;;47.73;30.33;;;1.20;99.90;;;;;;5076430;28;20290;-75
2020/12/08 07:45:25;;;;;;;45.27;29.17;;;1.30;99.90;;;;;;5076769;28;20209;-76
2020/12/08 07:47:53;;;;;;;39.80;28.50;;;1.20;99.90;;;;;;5096330;28;20676;-75
2020/12/08 07:50:21;;;;;;;44.60;29.77;;;1.30;99.90;;;;;;5096424;28;20213;-75
2020/12/08 07:52:55;;;;;;;41.53;26.90;;;1.30;99.90;;;;;;5095914;28;20202;-75
2020/12/08 07:55:22;;;;;;;37.60;27.00;;;1.30;99.90;;;;;;5096142;28;20205;-77
2020/12/08 07:57:48;;;;;;;37.53;27.03;;;1.30;99.90;;;;;;5096073;28;20214;-74
2020/12/08 08:00:15;;;;;;;41.37;25.20;;;1.30;99.90;;;;;;5096135;28;20213;-75
2020/12/08 08:02:42;;;;;;;45.07;25.53;;;1.40;99.90;;;;;;5099002;28;20211;-75
2020/12/08 08:05:09;;;;;;;39.13;24.67;;;1.50;99.90;;;;;;5107811;28;20213;-74
2020/12/08 08:07:35;;;;;;;44.70;26.70;;;1.60;99.90;;;;;;5089154;28;20260;-75
2020/12/08 08:10:01;;;;;;;43.13;24.37;;;1.60;99.90;;;;;;5096006;28;20210;-75
2020/12/08 08:12:28;;;;;;;44.40;26.37;;;1.70;99.90;;;;;;5095971;28;20209;-74
2020/12/08 08:14:55;;;;;;;41.17;27.10;;;1.80;99.90;;;;;;5095940;28;20212;-74
2020/12/08 08:17:21;;;;;;;36.23;23.93;;;1.90;99.90;;;;;;5107873;28;20288;-74
2020/12/08 08:19:49;;;;;;;41.13;25.03;;;2.00;99.90;;;;;;5098040;28;20226;-75
2020/12/08 08:22:16;;;;;;;32.63;23.90;;;2.00;99.90;;;;;;5095672;28;20645;-74
2020/12/08 08:24:42;;;;;;;35.60;23.20;;;2.10;99.90;;;;;;5095575;28;20649;-74
2020/12/08 08:27:09;;;;;;;36.30;24.10;;;2.10;99.90;;;;;;5095190;28;20205;-76
2020/12/08 08:29:35;;;;;;;35.60;24.20;;;2.20;99.90;;;;;;5085086;28;20198;-75
2020/12/08 08:32:01;;;;;;;40.27;25.30;;;2.20;99.90;;;;;;5077699;28;20213;-75
2020/12/08 08:34:27;;;;;;;31.83;22.47;;;2.30;99.90;;;;;;5084741;28;20208;-75
2020/12/08 08:36:56;;;;;;;33.40;23.23;;;2.40;99.90;;;;;;5084132;28;20206;-75
2020/12/08 08:39:23;;;;;;;31.80;21.47;;;2.50;99.90;;;;;;5082756;28;20721;-77
2020/12/08 08:41:51;;;;;;;34.17;23.20;;;2.80;99.90;;;;;;5088439;28;20218;-75
2020/12/08 08:44:18;;;;;;;35.73;23.00;;;2.80;99.90;;;;;;5085285;28;20195;-75
2020/12/08 08:46:44;;;;;;;34.03;22.00;;;2.90;99.90;;;;;;5081336;28;20210;-75
2020/12/08 08:49:14;;;;;;;33.50;22.77;;;3.10;99.90;;;;;;5088251;28;20198;-75
2020/12/08 08:51:41;;;;;;;33.20;21.33;;;3.30;99.90;;;;;;5082902;28;20230;-76
2020/12/08 08:54:09;;;;;;;33.67;21.53;;;3.60;99.90;;;;;;5083736;28;20206;-74
2020/12/08 08:56:36;;;;;;;28.90;19.27;;;3.70;99.90;;;;;;5084158;28;20211;-74
2020/12/08 08:59:02;;;;;;;29.87;20.63;;;3.70;99.90;;;;;;5082781;28;20226;-74
2020/12/08 09:01:28;;;;;;;31.90;20.83;;;3.70;99.90;;;;;;5084716;28;20253;-76
2020/12/08 09:03:55;;;;;;;30.63;20.07;;;3.90;99.90;;;;;;5085190;28;20204;-74
2020/12/08 09:06:21;;;;;;;29.50;20.80;;;3.70;99.90;;;;;;5093907;28;20292;-75
2020/12/08 09:08:48;;;;;;;30.40;19.93;;;3.60;99.90;;;;;;5095014;28;20198;-77
2020/12/08 09:11:15;;;;;;;56.93;24.73;;;3.60;99.90;;;;;;5098331;28;20573;-74
2020/12/08 09:13:41;;;;;;;51.57;21.77;;;3.60;99.90;;;;;;5094762;28;20210;-74
2020/12/08 09:16:08;;;;;;;32.30;21.57;;;3.50;99.90;;;;;;5096363;28;20212;-74
2020/12/08 09:18:35;;;;;;;34.20;21.53;;;3.60;99.90;;;;;;5100509;28;20230;-74
2020/12/08 09:21:01;;;;;;;31.67;20.60;;;3.60;99.90;;;;;;5104581;28;20656;-74
2020/12/08 09:23:30;;;;;;;28.30;19.80;;;3.40;99.90;;;;;;5096789;28;20206;-74
2020/12/08 09:25:58;;;;;;;31.77;20.90;;;3.50;99.90;;;;;;5074415;28;20207;-74
2020/12/08 09:28:26;;;;;;;37.13;20.70;;;3.50;99.90;;;;;;5074191;28;20213;-74
2020/12/08 09:30:52;;;;;;;31.90;20.97;;;3.60;99.90;;;;;;5084722;28;20561;-74
2020/12/08 09:33:19;;;;;;;31.40;21.00;;;3.60;99.90;;;;;;5102292;28;20206;-74
2020/12/08 09:35:45;;;;;;;33.53;18.80;;;3.70;99.90;;;;;;5091169;28;20204;-74
2020/12/08 09:38:12;;;;;;;30.43;19.10;;;3.70;99.90;;;;;;5085746;28;20232;-74
2020/12/08 09:40:41;;;;;;;31.63;20.03;;;3.80;99.90;;;;;;5094519;28;20326;-74
2020/12/08 09:43:07;;;;;;;32.30;20.30;;;3.80;99.90;;;;;;5094356;28;20208;-74
2020/12/08 09:45:37;;;;;;;31.43;20.03;;;3.70;99.90;;;;;;5094102;28;20652;-76
2020/12/08 09:48:04;;;;;;;31.13;19.53;;;3.90;99.90;;;;;;5094039;28;20566;-76
2020/12/08 09:50:31;;;;;;;28.77;19.57;;;3.90;99.90;;;;;;5097031;28;20205;-74
2020/12/08 09:52:57;;;;;;;32.03;20.23;;;3.90;99.90;;;;;;5095893;28;20199;-75
2020/12/08 09:55:23;;;;;;;31.67;20.10;;;3.90;99.90;;;;;;5094288;28;20198;-75
2020/12/08 09:57:50;;;;;;;34.30;22.03;;;4.00;99.90;;;;;;5093573;28;20309;-75
2020/12/08 10:00:16;;;;;;;26.20;19.10;;;4.10;99.90;;;;;;5094092;28;20683;-74
2020/12/08 10:02:43;;;;;;;27.67;19.03;;;4.10;99.90;;;;;;5096168;28;20285;-78
2020/12/08 10:05:10;;;;;;;26.60;18.37;;;4.00;99.90;;;;;;5096161;28;20281;-75
2020/12/08 10:07:36;;;;;;;31.27;19.90;;;4.00;99.90;;;;;;5082491;28;20558;-76
2020/12/08 10:10:03;;;;;;;30.03;19.37;;;4.10;99.90;;;;;;5093978;28;20289;-75
2020/12/08 10:12:29;;;;;;;27.53;19.53;;;4.10;99.90;;;;;;5095011;28;20281;-76
2020/12/08 10:14:56;;;;;;;29.73;19.77;;;4.30;99.90;;;;;;5097218;28;20193;-75
2020/12/08 10:17:22;;;;;;;32.43;19.63;;;4.40;99.90;;;;;;5083814;28;21039;-76
2020/12/08 10:19:49;;;;;;;30.50;20.23;;;4.40;99.90;;;;;;5082443;28;21537;-75
2020/12/08 10:22:16;;;;;;;32.13;19.23;;;4.50;99.90;;;;;;5082181;28;20202;-75
2020/12/08 10:24:43;;;;;;;30.60;19.87;;;4.40;99.90;;;;;;5080838;28;20649;-79
2020/12/08 10:27:09;;;;;;;25.23;19.07;;;4.40;99.90;;;;;;5080105;28;20279;-76
2020/12/08 10:29:36;;;;;;;29.60;19.60;;;4.30;99.90;;;;;;5079322;28;20307;-75
2020/12/08 10:32:02;;;;;;;29.60;19.77;;;4.20;99.90;;;;;;5080814;28;20206;-75
2020/12/08 10:34:28;;;;;;;32.03;20.20;;;4.20;99.90;;;;;;5080856;28;20195;-76
2020/12/08 10:36:56;;;;;;;28.77;20.63;;;4.20;99.90;;;;;;5081160;28;20206;-75
2020/12/08 10:39:22;;;;;;;29.77;21.53;;;4.20;99.90;;;;;;5082512;28;20226;-76
2020/12/08 10:41:48;;;;;;;30.60;19.77;;;4.20;99.90;;;;;;5080843;28;20229;-77
2020/12/08 10:44:16;;;;;;;29.43;20.10;;;4.20;99.90;;;;;;5083869;28;20206;-74
2020/12/08 10:46:42;;;;;;;30.80;20.97;;;4.40;99.90;;;;;;5081676;28;20202;-79
2020/12/08 10:49:09;;;;;;;31.83;20.00;;;4.50;99.90;;;;;;5083821;28;20205;-74
2020/12/08 10:51:35;;;;;;;26.33;19.93;;;4.40;99.90;;;;;;5080896;28;20720;-76
2020/12/08 10:54:02;;;;;;;31.37;21.97;;;4.50;99.90;;;;;;5079928;28;20571;-74
2020/12/08 10:56:29;;;;;;;30.57;20.67;;;4.50;99.90;;;;;;5082124;28;20214;-75
2020/12/08 10:58:55;;;;;;;34.73;21.97;;;4.50;99.90;;;;;;5103496;28;20217;-76
2020/12/08 11:01:23;;;;;;;31.07;20.87;;;4.50;99.90;;;;;;5090784;28;20206;-75
2020/12/08 11:03:50;;;;;;;31.63;21.77;;;4.40;99.90;;;;;;5091866;28;20597;-74
2020/12/08 11:06:20;;;;;;;30.13;21.53;;;4.40;99.90;;;;;;5106099;28;20202;-74
2020/12/08 11:08:47;;;;;;;27.97;21.60;;;4.30;99.90;;;;;;5092772;28;20263;-74
2020/12/08 11:11:14;;;;;;;36.50;23.47;;;4.30;99.90;;;;;;5110646;28;20213;-75
2020/12/08 11:13:41;;;;;;;35.13;22.53;;;4.20;99.90;;;;;;5106420;28;20244;-74
2020/12/08 11:16:07;;;;;;;34.60;23.03;;;4.10;99.90;;;;;;5100680;28;20289;-74
2020/12/08 11:18:33;;;;;;;38.27;22.50;;;4.10;99.90;;;;;;5097038;28;20669;-75
2020/12/08 11:21:00;;;;;;;28.93;22.00;;;4.00;99.90;;;;;;5097028;28;20281;-75
2020/12/08 11:23:26;;;;;;;38.53;23.07;;;4.00;99.90;;;;;;5082490;28;20240;-74
2020/12/08 11:25:53;;;;;;;33.70;22.17;;;3.90;99.90;;;;;;5096731;28;20562;-74
2020/12/08 11:28:20;;;;;;;30.73;21.23;;;4.00;99.90;;;;;;5111075;28;20573;-75
2020/12/08 11:30:47;;;;;;;35.23;22.93;;;4.00;99.90;;;;;;5082931;28;20190;-75
2020/12/08 11:33:13;;;;;;;32.10;22.50;;;4.00;99.90;;;;;;5096854;28;20221;-74
2020/12/08 11:35:39;;;;;;;36.37;22.27;;;4.10;99.90;;;;;;5082174;28;20285;-75
2020/12/08 11:38:06;;;;;;;36.63;22.70;;;4.20;99.90;;;;;;5096681;28;20225;-74
2020/12/08 11:40:32;;;;;;;30.00;20.87;;;4.20;99.90;;;;;;5094349;28;20214;-74
2020/12/08 11:42:58;;;;;;;31.90;22.03;;;4.30;99.90;;;;;;5084794;28;20279;-75
2020/12/08 11:45:26;;;;;;;32.17;22.90;;;4.20;99.90;;;;;;5096278;28;20213;-75
2020/12/08 11:47:52;;;;;;;29.83;22.30;;;4.30;99.90;;;;;;5096905;28;20209;-74
2020/12/08 11:50:19;;;;;;;30.00;21.83;;;4.40;99.90;;;;;;5096253;28;20206;-74
2020/12/08 11:52:46;;;;;;;30.23;21.73;;;4.50;99.90;;;;;;5091170;28;20205;-75
2020/12/08 11:55:12;;;;;;;27.40;20.17;;;4.40;99.90;;;;;;5087660;28;20562;-75
2020/12/08 11:57:38;;;;;;;28.83;19.23;;;4.50;99.90;;;;;;5082348;28;20194;-75
2020/12/08 12:00:06;;;;;;;29.53;20.13;;;4.50;99.90;;;;;;5096709;28;20216;-74
2020/12/08 12:02:34;;;;;;;26.87;19.53;;;4.60;99.90;;;;;;5096298;28;20294;-75
2020/12/08 12:05:00;;;;;;;26.20;20.07;;;4.50;99.90;;;;;;5095807;28;20201;-74
2020/12/08 12:07:26;;;;;;;25.03;19.33;;;4.50;99.90;;;;;;5096245;28;20209;-74
2020/12/08 12:09:53;;;;;;;27.33;18.93;;;4.40;99.90;;;;;;5096169;28;20660;-74
2020/12/08 12:12:19;;;;;;;29.40;20.07;;;4.60;99.90;;;;;;5095748;28;20201;-76
2020/12/08 12:14:46;;;;;;;27.13;20.30;;;4.50;99.90;;;;;;5095826;28;20202;-74
2020/12/08 12:17:12;;;;;;;24.97;19.30;;;4.50;99.90;;;;;;5096186;28;20204;-74
2020/12/08 12:19:39;;;;;;;25.23;18.00;;;4.50;99.90;;;;;;5095362;28;20688;-74
2020/12/08 12:22:06;;;;;;;23.87;17.93;;;4.40;99.90;;;;;;5091068;28;20199;-74
2020/12/08 12:24:32;;;;;;;31.57;19.33;;;4.50;99.90;;;;;;5086731;28;20214;-74
2020/12/08 12:26:58;;;;;;;26.23;19.30;;;4.50;99.90;;;;;;5095851;28;20210;-74
2020/12/08 12:29:25;;;;;;;26.43;17.83;;;4.60;99.90;;;;;;5095559;28;20657;-75
2020/12/08 12:31:51;;;;;;;34.50;19.80;;;4.60;99.90;;;;;;5095277;28;20210;-76
2020/12/08 12:34:18;;;;;;;25.57;19.10;;;4.70;99.90;;;;;;5095828;28;20206;-74